sensor_id;sensor_type;location;lat;lon;timestamp;pressure;altitude;pressure_sealevel;temperature;humidity
6680;BME280;3376;42.664;23.346;2022-10-15T00:00:07;94777.84;;;13.47;nan
6680;BME280;3376;42.664;23.346;2022-10-15T00:02:34;94781.88;;;13.50;nan
6680;BME280;3376;42.664;23.346;2022-10-15T00:05:01;94779.09;;;13.51;nan
6680;BME280;3376;42.664;23.346;2022-10-15T00:07:28;94779.03;;;13.45;nan
6680;BME280;3376;42.664;23.346;2022-10-15T00:09:55;94779.19;;;13.37;nan
6680;BME280;3376;42.664;23.346;2022-10-15T00:12:22;94767.75;;;13.38;nan
6680;BME280;3376;42.664;23.346;2022-10-15T00:14:50;94785.78;;;13.39;nan
6680;BME280;3376;42.664;23.346;2022-10-15T00:17:17;94782.13;;;13.34;nan
6680;BME280;3376;42.664;23.346;2022-10-15T00:19:44;94786.47;;;13.27;nan
6680;BME280;3376;42.664;23.346;2022-10-15T00:22:10;94773.19;;;13.22;nan
6680;BME280;3376;42.664;23.346;2022-10-15T00:24:37;94775.22;;;13.20;nan
6680;BME280;3376;42.664;23.346;2022-10-15T00:27:04;94777.00;;;13.19;nan
6680;BME280;3376;42.664;23.346;2022-10-15T00:29:31;94774.41;;;13.19;nan
6680;BME280;3376;42.664;23.346;2022-10-15T00:31:59;94763.69;;;13.08;nan
6680;BME280;3376;42.664;23.346;2022-10-15T00:34:25;94773.91;;;13.09;nan
6680;BME280;3376;42.664;23.346;2022-10-15T00:36:52;94766.47;;;12.91;nan
6680;BME280;3376;42.664;23.346;2022-10-15T00:39:19;94764.88;;;12.90;nan
6680;BME280;3376;42.664;23.346;2022-10-15T00:41:46;94757.22;;;12.89;nan
6680;BME280;3376;42.664;23.346;2022-10-15T00:47:16;94761.56;;;12.82;nan
6680;BME280;3376;42.664;23.346;2022-10-15T00:49:47;94719.94;;;12.46;nan
6680;BME280;3376;42.664;23.346;2022-10-15T00:52:17;94756.28;;;12.75;nan
6680;BME280;3376;42.664;23.346;2022-10-15T00:54:48;94726.78;;;12.68;nan
6680;BME280;3376;42.664;23.346;2022-10-15T00:57:18;94727.16;;;12.65;nan
6680;BME280;3376;42.664;23.346;2022-10-15T00:59:48;94749.22;;;12.69;nan
6680;BME280;3376;42.664;23.346;2022-10-15T01:02:19;94719.03;;;12.54;nan
6680;BME280;3376;42.664;23.346;2022-10-15T01:04:46;94738.38;;;12.66;nan
6680;BME280;3376;42.664;23.346;2022-10-15T01:07:13;94725.75;;;12.63;nan
6680;BME280;3376;42.664;23.346;2022-10-15T01:09:41;94739.19;;;12.66;nan
6680;BME280;3376;42.664;23.346;2022-10-15T01:12:10;94738.69;;;12.77;nan
6680;BME280;3376;42.664;23.346;2022-10-15T01:14:46;94747.44;;;12.91;nan
6680;BME280;3376;42.664;23.346;2022-10-15T01:17:20;94744.91;;;12.97;nan
6680;BME280;3376;42.664;23.346;2022-10-15T01:20:20;94744.50;;;12.94;nan
6680;BME280;3376;42.664;23.346;2022-10-15T01:23:06;94746.91;;;12.95;nan
6680;BME280;3376;42.664;23.346;2022-10-15T01:25:44;94745.28;;;12.94;nan
6680;BME280;3376;42.664;23.346;2022-10-15T01:28:24;94749.59;;;13.02;nan
6680;BME280;3376;42.664;23.346;2022-10-15T01:30:59;94747.81;;;13.03;nan
6680;BME280;3376;42.664;23.346;2022-10-15T01:33:33;94744.56;;;13.00;nan
6680;BME280;3376;42.664;23.346;2022-10-15T01:36:10;94742.63;;;13.03;nan
6680;BME280;3376;42.664;23.346;2022-10-15T01:38:47;94742.25;;;13.06;nan
6680;BME280;3376;42.664;23.346;2022-10-15T01:41:21;94732.66;;;12.91;nan
6680;BME280;3376;42.664;23.346;2022-10-15T01:43:57;94740.84;;;12.88;nan
6680;BME280;3376;42.664;23.346;2022-10-15T01:46:33;94744.91;;;12.97;nan
6680;BME280;3376;42.664;23.346;2022-10-15T01:49:03;94743.75;;;13.00;nan
6680;BME280;3376;42.664;23.346;2022-10-15T01:51:32;94750.88;;;12.91;nan
6680;BME280;3376;42.664;23.346;2022-10-15T01:54:01;94738.88;;;12.90;nan
6680;BME280;3376;42.664;23.346;2022-10-15T01:56:32;94711.09;;;12.76;nan
6680;BME280;3376;42.664;23.346;2022-10-15T01:59:01;94739.03;;;13.04;nan
6680;BME280;3376;42.664;23.346;2022-10-15T02:01:31;94743.13;;;12.98;nan
6680;BME280;3376;42.664;23.346;2022-10-15T02:03:58;94736.50;;;12.95;nan
6680;BME280;3376;42.664;23.346;2022-10-15T02:06:28;94743.84;;;13.07;nan
6680;BME280;3376;42.664;23.346;2022-10-15T02:09:04;94747.44;;;13.06;nan
6680;BME280;3376;42.664;23.346;2022-10-15T02:11:39;94725.19;;;13.03;nan
6680;BME280;3376;42.664;23.346;2022-10-15T02:14:10;94744.91;;;13.12;nan
6680;BME280;3376;42.664;23.346;2022-10-15T02:16:44;94746.34;;;13.15;nan
6680;BME280;3376;42.664;23.346;2022-10-15T02:19:17;94737.91;;;13.13;nan
6680;BME280;3376;42.664;23.346;2022-10-15T02:21:52;94717.50;;;12.95;nan
6680;BME280;3376;42.664;23.346;2022-10-15T02:24:21;94744.47;;;13.09;nan
6680;BME280;3376;42.664;23.346;2022-10-15T02:26:51;94745.47;;;13.08;nan
6680;BME280;3376;42.664;23.346;2022-10-15T02:29:22;94736.50;;;12.95;nan
6680;BME280;3376;42.664;23.346;2022-10-15T02:31:52;94754.34;;;12.98;nan
6680;BME280;3376;42.664;23.346;2022-10-15T02:34:21;94750.28;;;12.96;nan
6680;BME280;3376;42.664;23.346;2022-10-15T02:36:52;94738.59;;;12.85;nan
6680;BME280;3376;42.664;23.346;2022-10-15T02:39:21;94749.75;;;13.00;nan
6680;BME280;3376;42.664;23.346;2022-10-15T02:41:50;94741.00;;;13.02;nan
6680;BME280;3376;42.664;23.346;2022-10-15T02:44:17;94750.66;;;13.08;nan
6680;BME280;3376;42.664;23.346;2022-10-15T02:46:44;94738.56;;;13.00;nan
6680;BME280;3376;42.664;23.346;2022-10-15T02:49:12;94748.06;;;13.08;nan
6680;BME280;3376;42.664;23.346;2022-10-15T02:51:39;94755.69;;;13.09;nan
6680;BME280;3376;42.664;23.346;2022-10-15T02:54:07;94590.88;;;12.11;nan
6680;BME280;3376;42.664;23.346;2022-10-15T02:56:34;94724.97;;;12.83;nan
6680;BME280;3376;42.664;23.346;2022-10-15T02:59:03;94743.69;;;12.93;nan
6680;BME280;3376;42.664;23.346;2022-10-15T03:01:30;94740.34;;;12.99;nan
6680;BME280;3376;42.664;23.346;2022-10-15T03:03:57;94741.16;;;13.00;nan
6680;BME280;3376;42.664;23.346;2022-10-15T03:06:25;94741.97;;;13.00;nan
6680;BME280;3376;42.664;23.346;2022-10-15T03:08:53;94712.25;;;12.74;nan
6680;BME280;3376;42.664;23.346;2022-10-15T03:11:19;94747.88;;;12.94;nan
6680;BME280;3376;42.664;23.346;2022-10-15T03:13:46;94748.69;;;12.95;nan
6680;BME280;3376;42.664;23.346;2022-10-15T03:16:13;94743.69;;;12.93;nan
6680;BME280;3376;42.664;23.346;2022-10-15T03:18:40;94734.44;;;12.91;nan
6680;BME280;3376;42.664;23.346;2022-10-15T03:21:07;94742.94;;;12.99;nan
6680;BME280;3376;42.664;23.346;2022-10-15T03:23:35;94746.09;;;12.95;nan
6680;BME280;3376;42.664;23.346;2022-10-15T03:26:02;94758.72;;;12.98;nan
6680;BME280;3376;42.664;23.346;2022-10-15T03:28:28;94750.28;;;12.96;nan
6680;BME280;3376;42.664;23.346;2022-10-15T03:30:55;94750.88;;;12.91;nan
6680;BME280;3376;42.664;23.346;2022-10-15T03:33:22;94753.34;;;12.99;nan
6680;BME280;3376;42.664;23.346;2022-10-15T03:35:49;94742.94;;;12.99;nan
6680;BME280;3376;42.664;23.346;2022-10-15T03:38:17;94754.34;;;12.98;nan
6680;BME280;3376;42.664;23.346;2022-10-15T03:40:45;94732.41;;;12.86;nan
6680;BME280;3376;42.664;23.346;2022-10-15T03:43:12;94752.84;;;12.89;nan
6680;BME280;3376;42.664;23.346;2022-10-15T03:45:39;94753.72;;;12.96;nan
6680;BME280;3376;42.664;23.346;2022-10-15T03:48:06;94746.41;;;12.85;nan
6680;BME280;3376;42.664;23.346;2022-10-15T03:50:33;94752.25;;;12.73;nan
6680;BME280;3376;42.664;23.346;2022-10-15T03:53:02;94752.44;;;12.71;nan
6680;BME280;3376;42.664;23.346;2022-10-15T03:55:28;94735.78;;;12.66;nan
6680;BME280;3376;42.664;23.346;2022-10-15T03:57:57;94756.19;;;12.69;nan
6680;BME280;3376;42.664;23.346;2022-10-15T04:00:23;94748.16;;;12.64;nan
6680;BME280;3376;42.664;23.346;2022-10-15T04:02:50;94765.78;;;12.68;nan
6680;BME280;3376;42.664;23.346;2022-10-15T04:05:17;94760.44;;;12.70;nan
6680;BME280;3376;42.664;23.346;2022-10-15T04:07:44;94761.78;;;12.66;nan
6680;BME280;3376;42.664;23.346;2022-10-15T04:10:10;94746.44;;;12.56;nan
6680;BME280;3376;42.664;23.346;2022-10-15T04:12:37;94742.75;;;12.65;nan
6680;BME280;3376;42.664;23.346;2022-10-15T04:15:06;94768.22;;;12.70;nan
6680;BME280;3376;42.664;23.346;2022-10-15T04:17:33;94755.22;;;12.70;nan
6680;BME280;3376;42.664;23.346;2022-10-15T04:20:00;94750.94;;;12.62;nan
6680;BME280;3376;42.664;23.346;2022-10-15T04:22:27;94765.19;;;12.66;nan
6680;BME280;3376;42.664;23.346;2022-10-15T04:24:54;94761.31;;;12.62;nan
6680;BME280;3376;42.664;23.346;2022-10-15T04:27:20;94766.16;;;12.65;nan
6680;BME280;3376;42.664;23.346;2022-10-15T04:29:47;94757.28;;;12.60;nan
6680;BME280;3376;42.664;23.346;2022-10-15T04:32:16;94726.50;;;12.42;nan
6680;BME280;3376;42.664;23.346;2022-10-15T04:34:42;94768.88;;;12.57;nan
6680;BME280;3376;42.664;23.346;2022-10-15T04:37:10;94732.16;;;12.31;nan
6680;BME280;3376;42.664;23.346;2022-10-15T04:39:37;94767.34;;;12.48;nan
6680;BME280;3376;42.664;23.346;2022-10-15T04:42:04;94763.78;;;12.49;nan
6680;BME280;3376;42.664;23.346;2022-10-15T04:44:31;94767.22;;;12.56;nan
6680;BME280;3376;42.664;23.346;2022-10-15T04:46:58;94781.75;;;12.65;nan
6680;BME280;3376;42.664;23.346;2022-10-15T04:49:26;94762.41;;;12.53;nan
6680;BME280;3376;42.664;23.346;2022-10-15T04:51:53;94787.50;;;12.61;nan
6680;BME280;3376;42.664;23.346;2022-10-15T04:54:20;94788.56;;;12.66;nan
6680;BME280;3376;42.664;23.346;2022-10-15T04:56:47;94789.09;;;12.62;nan
6680;BME280;3376;42.664;23.346;2022-10-15T04:59:13;94790.53;;;12.64;nan
6680;BME280;3376;42.664;23.346;2022-10-15T05:01:40;94785.72;;;12.61;nan
6680;BME280;3376;42.664;23.346;2022-10-15T05:04:09;94784.97;;;12.67;nan
6680;BME280;3376;42.664;23.346;2022-10-15T05:06:37;94789.09;;;12.62;nan
6680;BME280;3376;42.664;23.346;2022-10-15T05:09:04;94794.28;;;12.76;nan
6680;BME280;3376;42.664;23.346;2022-10-15T05:11:35;94760.44;;;12.55;nan
6680;BME280;3376;42.664;23.346;2022-10-15T05:14:03;94799.75;;;12.81;nan
6680;BME280;3376;42.664;23.346;2022-10-15T05:16:31;94792.78;;;12.82;nan
6680;BME280;3376;42.664;23.346;2022-10-15T05:19:00;94812.56;;;12.83;nan
6680;BME280;3376;42.664;23.346;2022-10-15T05:21:28;94808.53;;;12.80;nan
6680;BME280;3376;42.664;23.346;2022-10-15T05:23:57;94806.47;;;12.76;nan
6680;BME280;3376;42.664;23.346;2022-10-15T05:26:25;94801.09;;;12.77;nan
6680;BME280;3376;42.664;23.346;2022-10-15T05:28:52;94807.56;;;12.81;nan
6680;BME280;3376;42.664;23.346;2022-10-15T05:31:20;94806.66;;;12.74;nan
6680;BME280;3376;42.664;23.346;2022-10-15T05:33:48;94802.19;;;12.68;nan
6680;BME280;3376;42.664;23.346;2022-10-15T05:36:17;94813.13;;;12.78;nan
6680;BME280;3376;42.664;23.346;2022-10-15T05:38:45;94813.13;;;12.78;nan
6680;BME280;3376;42.664;23.346;2022-10-15T05:41:14;94820.47;;;12.75;nan
6680;BME280;3376;42.664;23.346;2022-10-15T05:43:41;94823.78;;;12.83;nan
6680;BME280;3376;42.664;23.346;2022-10-15T05:46:08;94802.47;;;12.73;nan
6680;BME280;3376;42.664;23.346;2022-10-15T05:48:35;94830.91;;;12.96;nan
6680;BME280;3376;42.664;23.346;2022-10-15T05:51:03;94833.97;;;12.99;nan
6680;BME280;3376;42.664;23.346;2022-10-15T05:53:30;94831.34;;;12.99;nan
6680;BME280;3376;42.664;23.346;2022-10-15T05:55:57;94831.31;;;13.08;nan
6680;BME280;3376;42.664;23.346;2022-10-15T05:58:26;94691.31;;;12.25;nan
6680;BME280;3376;42.664;23.346;2022-10-15T06:00:54;94805.16;;;13.16;nan
6680;BME280;3376;42.664;23.346;2022-10-15T06:03:21;94833.25;;;13.41;nan
6680;BME280;3376;42.664;23.346;2022-10-15T06:05:49;94844.47;;;13.42;nan
6680;BME280;3376;42.664;23.346;2022-10-15T06:08:16;94833.13;;;13.49;nan
6680;BME280;3376;42.664;23.346;2022-10-15T06:10:43;94825.94;;;13.51;nan
6680;BME280;3376;42.664;23.346;2022-10-15T06:13:10;94775.31;;;13.33;nan
6680;BME280;3376;42.664;23.346;2022-10-15T06:15:39;94834.38;;;13.74;nan
6680;BME280;3376;42.664;23.346;2022-10-15T06:18:06;94840.50;;;13.88;nan
6680;BME280;3376;42.664;23.346;2022-10-15T06:20:33;94844.47;;;14.05;nan
6680;BME280;3376;42.664;23.346;2022-10-15T06:23:01;94787.31;;;13.76;nan
6680;BME280;3376;42.664;23.346;2022-10-15T06:25:29;94856.03;;;14.24;nan
6680;BME280;3376;42.664;23.346;2022-10-15T06:27:59;94855.34;;;14.36;nan
6680;BME280;3376;42.664;23.346;2022-10-15T06:30:26;94854.81;;;14.47;nan
6680;BME280;3376;42.664;23.346;2022-10-15T06:32:55;94844.19;;;14.49;nan
6680;BME280;3376;42.664;23.346;2022-10-15T06:35:22;94865.53;;;14.93;nan
6680;BME280;3376;42.664;23.346;2022-10-15T06:37:50;94874.19;;;15.41;nan
6680;BME280;3376;42.664;23.346;2022-10-15T06:40:17;94869.50;;;16.09;nan
6680;BME280;3376;42.664;23.346;2022-10-15T06:42:44;94876.59;;;17.18;nan
6680;BME280;3376;42.664;23.346;2022-10-15T06:45:10;94877.56;;;18.06;nan
6680;BME280;3376;42.664;23.346;2022-10-15T06:47:39;94873.69;;;18.89;nan
6680;BME280;3376;42.664;23.346;2022-10-15T06:50:07;94880.75;;;19.60;nan
6680;BME280;3376;42.664;23.346;2022-10-15T06:52:34;94880.00;;;20.42;nan
6680;BME280;3376;42.664;23.346;2022-10-15T06:55:01;94877.41;;;21.00;nan
6680;BME280;3376;42.664;23.346;2022-10-15T06:57:28;94882.34;;;21.59;nan
6680;BME280;3376;42.664;23.346;2022-10-15T06:59:55;94882.03;;;21.84;nan
6680;BME280;3376;42.664;23.346;2022-10-15T07:02:22;94872.56;;;21.99;nan
6680;BME280;3376;42.664;23.346;2022-10-15T07:04:49;94857.19;;;21.80;nan
6680;BME280;3376;42.664;23.346;2022-10-15T07:07:17;94876.78;;;22.29;nan
6680;BME280;3376;42.664;23.346;2022-10-15T07:09:44;94879.69;;;22.44;nan
6680;BME280;3376;42.664;23.346;2022-10-15T07:12:12;94882.09;;;22.62;nan
6680;BME280;3376;42.664;23.346;2022-10-15T07:14:40;94886.56;;;22.94;nan
6680;BME280;3376;42.664;23.346;2022-10-15T07:17:07;94888.44;;;23.32;nan
6680;BME280;3376;42.664;23.346;2022-10-15T07:19:33;94894.03;;;23.57;nan
6680;BME280;3376;42.664;23.346;2022-10-15T07:22:00;94872.41;;;23.22;nan
6680;BME280;3376;42.664;23.346;2022-10-15T07:24:28;94885.56;;;22.62;nan
6680;BME280;3376;42.664;23.346;2022-10-15T07:26:55;94897.66;;;22.30;nan
6680;BME280;3376;42.664;23.346;2022-10-15T07:29:22;94889.41;;;21.70;nan
6680;BME280;3376;42.664;23.346;2022-10-15T07:31:49;94880.25;;;21.10;nan
6680;BME280;3376;42.664;23.346;2022-10-15T07:34:15;94889.66;;;20.71;nan
6680;BME280;3376;42.664;23.346;2022-10-15T07:36:42;94891.09;;;20.33;nan
6680;BME280;3376;42.664;23.346;2022-10-15T07:39:09;94894.91;;;20.07;nan
6680;BME280;3376;42.664;23.346;2022-10-15T07:41:37;94890.63;;;19.95;nan
6680;BME280;3376;42.664;23.346;2022-10-15T07:44:04;94886.59;;;19.92;nan
6680;BME280;3376;42.664;23.346;2022-10-15T07:46:31;94891.22;;;19.78;nan
6680;BME280;3376;42.664;23.346;2022-10-15T07:48:58;94888.78;;;19.65;nan
6680;BME280;3376;42.664;23.346;2022-10-15T07:51:24;94892.44;;;19.28;nan
6680;BME280;3376;42.664;23.346;2022-10-15T07:53:51;94853.59;;;18.94;nan
6680;BME280;3376;42.664;23.346;2022-10-15T07:56:18;94896.81;;;19.16;nan
6680;BME280;3376;42.664;23.346;2022-10-15T07:58:46;94894.63;;;19.49;nan
6680;BME280;3376;42.664;23.346;2022-10-15T08:01:17;94888.16;;;19.81;nan
6680;BME280;3376;42.664;23.346;2022-10-15T08:03:45;94850.81;;;19.25;nan
6680;BME280;3376;42.664;23.346;2022-10-15T08:06:12;94899.09;;;19.31;nan
6680;BME280;3376;42.664;23.346;2022-10-15T08:08:39;94895.06;;;19.10;nan
6680;BME280;3376;42.664;23.346;2022-10-15T08:11:06;94895.72;;;19.24;nan
6680;BME280;3376;42.664;23.346;2022-10-15T08:13:34;94894.31;;;19.75;nan
6680;BME280;3376;42.664;23.346;2022-10-15T08:16:05;94900.94;;;20.49;nan
6680;BME280;3376;42.664;23.346;2022-10-15T08:18:32;94893.03;;;20.37;nan
6680;BME280;3376;42.664;23.346;2022-10-15T08:20:59;94838.69;;;20.89;nan
6680;BME280;3376;42.664;23.346;2022-10-15T08:23:26;94897.41;;;21.87;nan
6680;BME280;3376;42.664;23.346;2022-10-15T08:25:53;94878.97;;;22.32;nan
6680;BME280;3376;42.664;23.346;2022-10-15T08:28:19;94879.78;;;22.82;nan
6680;BME280;3376;42.664;23.346;2022-10-15T08:30:46;94889.59;;;23.03;nan
6680;BME280;3376;42.664;23.346;2022-10-15T08:33:14;94887.34;;;23.11;nan
6680;BME280;3376;42.664;23.346;2022-10-15T08:35:42;94884.06;;;23.04;nan
6680;BME280;3376;42.664;23.346;2022-10-15T08:38:09;94881.81;;;23.51;nan
6680;BME280;3376;42.664;23.346;2022-10-15T08:40:36;94884.84;;;23.86;nan
6680;BME280;3376;42.664;23.346;2022-10-15T08:43:03;94883.47;;;24.27;nan
6680;BME280;3376;42.664;23.346;2022-10-15T08:45:35;94885.78;;;24.50;nan
6680;BME280;3376;42.664;23.346;2022-10-15T08:48:05;94878.06;;;24.17;nan
6680;BME280;3376;42.664;23.346;2022-10-15T08:50:40;94885.00;;;23.75;nan
6680;BME280;3376;42.664;23.346;2022-10-15T08:53:12;94876.50;;;23.29;nan
6680;BME280;3376;42.664;23.346;2022-10-15T08:55:42;94870.41;;;22.91;nan
6680;BME280;3376;42.664;23.346;2022-10-15T08:58:14;94882.31;;;23.48;nan
6680;BME280;3376;42.664;23.346;2022-10-15T09:00:45;94890.09;;;23.81;nan
6680;BME280;3376;42.664;23.346;2022-10-15T09:03:32;94885.53;;;23.55;nan
6680;BME280;3376;42.664;23.346;2022-10-15T09:06:09;94893.00;;;23.58;nan
6680;BME280;3376;42.664;23.346;2022-10-15T09:08:46;94888.03;;;23.23;nan
6680;BME280;3376;42.664;23.346;2022-10-15T09:11:19;94883.00;;;22.67;nan
6680;BME280;3376;42.664;23.346;2022-10-15T09:13:49;94882.88;;;22.46;nan
6680;BME280;3376;42.664;23.346;2022-10-15T09:16:20;94830.44;;;21.76;nan
6680;BME280;3376;42.664;23.346;2022-10-15T09:18:49;94886.25;;;21.96;nan
6680;BME280;3376;42.664;23.346;2022-10-15T09:21:18;94863.13;;;21.47;nan
6680;BME280;3376;42.664;23.346;2022-10-15T09:23:46;94888.50;;;21.25;nan
6680;BME280;3376;42.664;23.346;2022-10-15T09:26:21;94877.63;;;21.10;nan
6680;BME280;3376;42.664;23.346;2022-10-15T09:28:55;94878.47;;;21.50;nan
6680;BME280;3376;42.664;23.346;2022-10-15T09:31:29;94839.97;;;21.77;nan
6680;BME280;3376;42.664;23.346;2022-10-15T09:34:03;94878.56;;;22.23;nan
6680;BME280;3376;42.664;23.346;2022-10-15T09:36:40;94872.03;;;22.59;nan
6680;BME280;3376;42.664;23.346;2022-10-15T09:39:34;94880.97;;;22.91;nan
6680;BME280;3376;42.664;23.346;2022-10-15T09:42:14;94878.50;;;23.22;nan
6680;BME280;3376;42.664;23.346;2022-10-15T09:44:45;94876.25;;;22.60;nan
6680;BME280;3376;42.664;23.346;2022-10-15T09:47:19;94863.84;;;22.44;nan
6680;BME280;3376;42.664;23.346;2022-10-15T09:49:48;94868.56;;;22.42;nan
6680;BME280;3376;42.664;23.346;2022-10-15T09:52:21;94858.25;;;22.57;nan
6680;BME280;3376;42.664;23.346;2022-10-15T09:55:01;94869.22;;;22.49;nan
6680;BME280;3376;42.664;23.346;2022-10-15T09:57:30;94868.53;;;22.25;nan
6680;BME280;3376;42.664;23.346;2022-10-15T10:00:00;94864.94;;;21.86;nan
6680;BME280;3376;42.664;23.346;2022-10-15T10:02:28;94863.41;;;21.62;nan
6680;BME280;3376;42.664;23.346;2022-10-15T10:04:55;94867.13;;;21.50;nan
6680;BME280;3376;42.664;23.346;2022-10-15T10:07:32;94684.47;;;20.19;nan
6680;BME280;3376;42.664;23.346;2022-10-15T10:10:02;94871.34;;;20.99;nan
6680;BME280;3376;42.664;23.346;2022-10-15T10:12:32;94723.00;;;20.02;nan
6680;BME280;3376;42.664;23.346;2022-10-15T10:15:03;94852.53;;;20.73;nan
6680;BME280;3376;42.664;23.346;2022-10-15T10:17:30;94853.56;;;20.83;nan
6680;BME280;3376;42.664;23.346;2022-10-15T10:20:13;94864.22;;;20.77;nan
6680;BME280;3376;42.664;23.346;2022-10-15T10:22:46;94859.28;;;20.57;nan
6680;BME280;3376;42.664;23.346;2022-10-15T10:25:29;94852.31;;;20.51;nan
6680;BME280;3376;42.664;23.346;2022-10-15T10:27:58;94852.69;;;21.01;nan
6680;BME280;3376;42.664;23.346;2022-10-15T10:30:32;94855.84;;;21.26;nan
6680;BME280;3376;42.664;23.346;2022-10-15T10:33:00;94855.97;;;20.96;nan
6680;BME280;3376;42.664;23.346;2022-10-15T10:35:34;94852.91;;;20.65;nan
6680;BME280;3376;42.664;23.346;2022-10-15T10:38:03;94852.09;;;20.64;nan
6680;BME280;3376;42.664;23.346;2022-10-15T10:40:33;94854.50;;;20.43;nan
6680;BME280;3376;42.664;23.346;2022-10-15T10:43:15;94855.72;;;20.29;nan
6680;BME280;3376;42.664;23.346;2022-10-15T10:45:55;94852.22;;;20.58;nan
6680;BME280;3376;42.664;23.346;2022-10-15T10:48:25;94845.22;;;20.75;nan
6680;BME280;3376;42.664;23.346;2022-10-15T10:51:04;94846.00;;;20.64;nan
6680;BME280;3376;42.664;23.346;2022-10-15T10:53:39;94847.19;;;20.45;nan
6680;BME280;3376;42.664;23.346;2022-10-15T10:56:10;94829.75;;;20.21;nan
6680;BME280;3376;42.664;23.346;2022-10-15T10:58:38;94833.03;;;20.16;nan
6680;BME280;3376;42.664;23.346;2022-10-15T11:01:04;94842.34;;;19.59;nan
6680;BME280;3376;42.664;23.346;2022-10-15T11:03:33;94834.16;;;19.67;nan
6680;BME280;3376;42.664;23.346;2022-10-15T11:06:15;94826.28;;;20.09;nan
6680;BME280;3376;42.664;23.346;2022-10-15T11:08:55;94826.88;;;20.91;nan
6680;BME280;3376;42.664;23.346;2022-10-15T11:11:29;94785.03;;;21.58;nan
6680;BME280;3376;42.664;23.346;2022-10-15T11:14:02;94830.22;;;22.56;nan
6680;BME280;3376;42.664;23.346;2022-10-15T11:16:37;94825.19;;;22.71;nan
6680;BME280;3376;42.664;23.346;2022-10-15T11:19:19;94828.19;;;23.17;nan
6680;BME280;3376;42.664;23.346;2022-10-15T11:21:59;94833.53;;;23.39;nan
6680;BME280;3376;42.664;23.346;2022-10-15T11:24:34;94808.03;;;22.90;nan
6680;BME280;3376;42.664;23.346;2022-10-15T11:27:15;94828.88;;;22.53;nan
6680;BME280;3376;42.664;23.346;2022-10-15T11:29:52;94827.19;;;22.14;nan
6680;BME280;3376;42.664;23.346;2022-10-15T11:32:32;94755.97;;;21.41;nan
6680;BME280;3376;42.664;23.346;2022-10-15T11:35:23;94823.13;;;21.78;nan
6680;BME280;3376;42.664;23.346;2022-10-15T11:38:04;94794.06;;;21.22;nan
6680;BME280;3376;42.664;23.346;2022-10-15T11:40:50;94825.38;;;21.07;nan
6680;BME280;3376;42.664;23.346;2022-10-15T11:43:31;94815.66;;;21.47;nan
6680;BME280;3376;42.664;23.346;2022-10-15T11:46:08;94812.78;;;22.05;nan
6680;BME280;3376;42.664;23.346;2022-10-15T11:48:49;94815.97;;;22.73;nan
6680;BME280;3376;42.664;23.346;2022-10-15T11:51:28;94816.72;;;23.07;nan
6680;BME280;3376;42.664;23.346;2022-10-15T11:54:20;94812.31;;;23.34;nan
6680;BME280;3376;42.664;23.346;2022-10-15T11:56:52;94821.59;;;23.37;nan
6680;BME280;3376;42.664;23.346;2022-10-15T11:59:29;94824.34;;;23.25;nan
6680;BME280;3376;42.664;23.346;2022-10-15T12:02:00;94831.34;;;22.76;nan
6680;BME280;3376;42.664;23.346;2022-10-15T12:04:39;94803.84;;;22.23;nan
6680;BME280;3376;42.664;23.346;2022-10-15T12:07:14;94823.66;;;22.08;nan
6680;BME280;3376;42.664;23.346;2022-10-15T12:09:46;94825.19;;;21.76;nan
6680;BME280;3376;42.664;23.346;2022-10-15T12:12:24;94834.88;;;21.59;nan
6680;BME280;3376;42.664;23.346;2022-10-15T12:15:03;94829.63;;;20.85;nan
6680;BME280;3376;42.664;23.346;2022-10-15T12:17:41;94823.81;;;20.37;nan
6680;BME280;3376;42.664;23.346;2022-10-15T12:20:13;94840.16;;;20.16;nan
6680;BME280;3376;42.664;23.346;2022-10-15T12:22:53;94823.72;;;20.02;nan
6680;BME280;3376;42.664;23.346;2022-10-15T12:25:42;94831.91;;;19.82;nan
6680;BME280;3376;42.664;23.346;2022-10-15T12:28:19;94833.84;;;19.75;nan
6680;BME280;3376;42.664;23.346;2022-10-15T12:30:54;94828.88;;;19.38;nan
6680;BME280;3376;42.664;23.346;2022-10-15T12:33:25;94803.84;;;18.99;nan
6680;BME280;3376;42.664;23.346;2022-10-15T12:35:56;94834.00;;;18.97;nan
6680;BME280;3376;42.664;23.346;2022-10-15T12:38:29;94821.47;;;18.99;nan
6680;BME280;3376;42.664;23.346;2022-10-15T12:41:02;94759.25;;;18.63;nan
6680;BME280;3376;42.664;23.346;2022-10-15T12:43:33;94819.06;;;18.97;nan
6680;BME280;3376;42.664;23.346;2022-10-15T12:46:02;94818.78;;;18.87;nan
6680;BME280;3376;42.664;23.346;2022-10-15T12:48:35;94815.53;;;18.67;nan
6680;BME280;3376;42.664;23.346;2022-10-15T12:53:59;94822.81;;;18.65;nan
6680;BME280;3376;42.664;23.346;2022-10-15T12:56:37;94818.88;;;18.74;nan
6680;BME280;3376;42.664;23.346;2022-10-15T12:59:27;94818.03;;;18.98;nan
6680;BME280;3376;42.664;23.346;2022-10-15T13:01:55;94828.16;;;19.31;nan
6680;BME280;3376;42.664;23.346;2022-10-15T13:04:22;94814.38;;;19.17;nan
6680;BME280;3376;42.664;23.346;2022-10-15T13:06:50;94826.97;;;19.27;nan
6680;BME280;3376;42.664;23.346;2022-10-15T13:09:27;94818.72;;;19.41;nan
6680;BME280;3376;42.664;23.346;2022-10-15T13:11:55;94821.75;;;19.56;nan
6680;BME280;3376;42.664;23.346;2022-10-15T13:14:29;94709.00;;;18.96;nan
6680;BME280;3376;42.664;23.346;2022-10-15T13:16:57;94828.91;;;19.67;nan
6680;BME280;3376;42.664;23.346;2022-10-15T13:19:27;94830.03;;;19.71;nan
6680;BME280;3376;42.664;23.346;2022-10-15T13:21:57;94813.25;;;19.72;nan
6680;BME280;3376;42.664;23.346;2022-10-15T13:24:26;94785.94;;;19.73;nan
6680;BME280;3376;42.664;23.346;2022-10-15T13:26:54;94810.75;;;19.77;nan
6680;BME280;3376;42.664;23.346;2022-10-15T13:29:23;94797.25;;;19.74;nan
6680;BME280;3376;42.664;23.346;2022-10-15T13:31:54;94786.84;;;19.67;nan
6680;BME280;3376;42.664;23.346;2022-10-15T13:34:25;94811.06;;;19.69;nan
6680;BME280;3376;42.664;23.346;2022-10-15T13:36:53;94808.53;;;19.63;nan
6680;BME280;3376;42.664;23.346;2022-10-15T13:39:25;94811.97;;;19.63;nan
6680;BME280;3376;42.664;23.346;2022-10-15T13:42:05;94775.16;;;19.34;nan
6680;BME280;3376;42.664;23.346;2022-10-15T13:44:32;94784.13;;;19.44;nan
6680;BME280;3376;42.664;23.346;2022-10-15T13:47:00;94815.66;;;19.74;nan
6680;BME280;3376;42.664;23.346;2022-10-15T13:49:27;94815.44;;;19.75;nan
6680;BME280;3376;42.664;23.346;2022-10-15T13:51:54;94810.41;;;19.85;nan
6680;BME280;3376;42.664;23.346;2022-10-15T13:54:24;94818.16;;;20.10;nan